createdAt,value
2023-05-19T00:01:15.716Z,22.87
2023-05-19T00:03:56.985Z,22.85
2023-05-19T00:06:27.371Z,22.87
2023-05-19T00:08:58.886Z,22.83
2023-05-19T00:11:26.550Z,22.88
2023-05-19T00:13:54.379Z,22.82
2023-05-19T00:16:21.943Z,22.79
2023-05-19T00:18:49.018Z,22.76
2023-05-19T00:21:15.851Z,22.78
2023-05-19T00:23:42.695Z,22.84
2023-05-19T00:26:09.862Z,22.78
2023-05-19T00:28:36.710Z,22.87
2023-05-19T00:31:07.079Z,22.82
2023-05-19T00:33:33.889Z,22.84
2023-05-19T00:36:01.876Z,22.83
2023-05-19T00:38:29.079Z,22.83
2023-05-19T00:40:55.885Z,22.87
2023-05-19T00:43:22.699Z,22.79
2023-05-19T00:45:49.500Z,22.82
2023-05-19T00:48:16.340Z,22.80
2023-05-19T00:50:43.145Z,22.80
2023-05-19T00:53:09.906Z,22.82
2023-05-19T00:55:37.355Z,22.83
2023-05-19T00:58:04.813Z,22.81
2023-05-19T01:00:31.787Z,22.80
2023-05-19T01:02:58.915Z,22.77
2023-05-19T01:05:25.829Z,22.79
2023-05-19T01:07:52.696Z,22.82
2023-05-19T01:10:20.797Z,22.77
2023-05-19T01:12:48.012Z,22.74
2023-05-19T01:15:15.094Z,22.74
2023-05-19T01:17:47.704Z,22.81
2023-05-19T01:20:24.393Z,22.80
2023-05-19T01:23:12.852Z,22.79
2023-05-19T01:25:45.634Z,22.76
2023-05-19T01:28:36.833Z,22.72
2023-05-19T01:31:03.622Z,22.76
2023-05-19T01:33:30.466Z,22.77
2023-05-19T01:35:57.292Z,22.79
2023-05-19T01:38:24.088Z,22.75
2023-05-19T01:40:50.921Z,22.78
2023-05-19T01:43:21.091Z,22.82
2023-05-19T01:45:48.153Z,22.80
2023-05-19T01:48:14.933Z,22.78
2023-05-19T01:50:41.980Z,22.84
2023-05-19T01:53:08.892Z,22.75
2023-05-19T01:55:36.753Z,22.80
2023-05-19T01:58:35.928Z,22.75
2023-05-19T02:01:14.687Z,22.74
2023-05-19T02:03:41.400Z,22.77
2023-05-19T02:06:19.141Z,22.78
2023-05-19T02:08:57.625Z,22.83
2023-05-19T02:11:28.327Z,22.78
2023-05-19T02:13:56.579Z,22.74
2023-05-19T02:16:26.687Z,22.72
2023-05-19T02:18:53.899Z,22.76
2023-05-19T02:21:20.755Z,22.71
2023-05-19T02:23:48.498Z,22.73
2023-05-19T02:26:15.237Z,22.68
2023-05-19T02:28:42.050Z,22.68
2023-05-19T02:31:08.890Z,22.71
2023-05-19T02:33:35.723Z,22.72
2023-05-19T02:36:02.502Z,22.70
2023-05-19T02:38:29.340Z,22.70
2023-05-19T02:40:56.202Z,22.73
2023-05-19T02:43:22.954Z,22.69
2023-05-19T02:45:49.762Z,22.67
2023-05-19T02:48:16.626Z,22.73
2023-05-19T02:50:46.501Z,22.69
2023-05-19T02:53:13.356Z,22.66
2023-05-19T02:55:40.219Z,22.68
2023-05-19T02:58:06.996Z,22.73
2023-05-19T03:00:33.988Z,22.71
2023-05-19T03:03:01.008Z,22.75
2023-05-19T03:05:28.027Z,22.71
2023-05-19T03:07:54.807Z,22.76
2023-05-19T03:10:21.617Z,22.74
2023-05-19T03:12:48.399Z,22.72
2023-05-19T03:15:15.196Z,22.72
2023-05-19T03:17:42.217Z,22.76
2023-05-19T03:20:09.655Z,22.73
2023-05-19T03:22:36.490Z,22.74
2023-05-19T03:25:03.358Z,22.74
2023-05-19T03:27:30.129Z,22.70
2023-05-19T03:29:57.002Z,22.71
2023-05-19T03:32:23.986Z,22.75
2023-05-19T03:34:50.988Z,22.77
2023-05-19T03:37:17.865Z,22.77
2023-05-19T03:39:44.673Z,22.75
2023-05-19T03:42:11.479Z,22.74
2023-05-19T03:44:38.244Z,22.75
2023-05-19T03:47:05.413Z,22.71
2023-05-19T03:49:32.177Z,22.70
2023-05-19T03:51:58.988Z,22.71
2023-05-19T03:54:25.840Z,22.71
2023-05-19T03:56:52.676Z,22.69
2023-05-19T03:59:19.516Z,22.70
2023-05-19T04:01:46.286Z,22.66
2023-05-19T04:04:13.103Z,22.71
2023-05-19T04:06:39.923Z,22.64
2023-05-19T04:09:14.398Z,22.67
2023-05-19T04:11:41.739Z,22.63
2023-05-19T04:16:35.459Z,22.66
2023-05-19T04:19:02.411Z,22.60
2023-05-19T04:21:29.268Z,22.65
2023-05-19T04:23:56.055Z,22.67
2023-05-19T04:26:22.802Z,22.55
2023-05-19T04:28:49.585Z,22.62
2023-05-19T04:31:16.368Z,22.65
2023-05-19T04:33:43.185Z,22.65
2023-05-19T04:36:10.011Z,22.65
2023-05-19T04:41:04.036Z,22.66
2023-05-19T04:43:33.630Z,22.69
2023-05-19T04:46:00.473Z,22.66
2023-05-19T04:48:27.315Z,22.65
2023-05-19T04:50:54.122Z,22.68
2023-05-19T04:53:20.901Z,22.72
2023-05-19T04:55:47.686Z,22.74
2023-05-19T04:58:14.500Z,22.82
2023-05-19T05:00:41.298Z,22.92
2023-05-19T05:03:08.243Z,22.91
2023-05-19T05:05:35.297Z,22.90
2023-05-19T05:08:02.134Z,22.92
2023-05-19T05:10:29.035Z,22.95
2023-05-19T05:12:56.150Z,22.88
2023-05-19T05:15:23.208Z,22.95
2023-05-19T05:17:50.544Z,22.87
2023-05-19T05:20:17.734Z,22.88
2023-05-19T05:22:44.920Z,22.92
2023-05-19T05:25:12.661Z,22.95
2023-05-19T05:27:39.433Z,22.88
2023-05-19T05:30:06.830Z,23.00
2023-05-19T05:32:33.639Z,22.97
2023-05-19T05:35:00.503Z,22.98
2023-05-19T05:37:27.674Z,22.99
2023-05-19T05:39:54.376Z,23.03
2023-05-19T05:42:21.169Z,23.00
2023-05-19T05:44:47.961Z,23.02
2023-05-19T05:47:14.928Z,23.08
2023-05-19T05:49:41.982Z,23.03
2023-05-19T05:52:08.881Z,23.04
2023-05-19T05:54:35.873Z,23.06
2023-05-19T05:57:02.914Z,23.10
2023-05-19T05:59:29.642Z,23.04
2023-05-19T06:01:56.413Z,23.12
2023-05-19T06:04:23.199Z,23.11
2023-05-19T06:06:49.987Z,23.08
2023-05-19T06:09:16.732Z,23.08
2023-05-19T06:11:43.588Z,23.12
2023-05-19T06:14:10.471Z,23.16
2023-05-19T06:16:37.628Z,23.17
2023-05-19T06:19:04.805Z,23.08
2023-05-19T06:21:31.623Z,23.17
2023-05-19T06:23:58.434Z,23.16
2023-05-19T06:26:25.280Z,23.17
2023-05-19T06:28:52.015Z,23.19
2023-05-19T06:31:18.768Z,23.23
2023-05-19T06:33:45.580Z,23.28
2023-05-19T06:36:12.379Z,23.30
2023-05-19T06:38:39.153Z,23.29
2023-05-19T06:41:06.633Z,23.32
2023-05-19T06:43:33.364Z,23.25
2023-05-19T06:46:00.184Z,23.31
2023-05-19T06:48:26.900Z,23.33
2023-05-19T06:50:53.714Z,23.28
2023-05-19T06:53:20.660Z,23.32
2023-05-19T06:55:57.980Z,23.33
2023-05-19T06:58:25.303Z,23.35
2023-05-19T07:00:52.050Z,23.35
2023-05-19T07:03:19.002Z,23.34
2023-05-19T07:05:45.913Z,23.34
2023-05-19T07:08:12.656Z,23.35
2023-05-19T07:10:39.579Z,23.39
2023-05-19T07:13:06.361Z,23.38
2023-05-19T07:15:33.090Z,23.36
2023-05-19T07:17:59.941Z,23.37
2023-05-19T07:20:26.896Z,23.40
2023-05-19T07:22:53.872Z,23.30
2023-05-19T07:25:20.605Z,23.36
2023-05-19T07:27:47.367Z,23.30
2023-05-19T07:30:14.118Z,23.29
2023-05-19T07:32:40.954Z,23.30
2023-05-19T07:35:07.989Z,23.29
2023-05-19T07:37:34.770Z,23.28
2023-05-19T07:40:01.587Z,23.22
2023-05-19T07:42:28.339Z,23.08
2023-05-19T07:44:55.211Z,23.03
2023-05-19T07:47:46.470Z,22.91
2023-05-19T07:50:13.352Z,22.97
2023-05-19T07:52:40.386Z,22.95
2023-05-19T07:55:07.215Z,22.94
2023-05-19T07:57:34.097Z,22.82
2023-05-19T08:00:00.896Z,22.79
2023-05-19T08:02:27.818Z,22.71
2023-05-19T08:04:54.903Z,22.64
2023-05-19T08:07:21.858Z,22.66
2023-05-19T08:09:48.565Z,22.60
2023-05-19T08:12:15.569Z,22.57
2023-05-19T08:14:42.379Z,22.57
2023-05-19T08:17:09.258Z,22.57
2023-05-19T08:19:36.000Z,22.74
2023-05-19T08:22:02.796Z,22.67
2023-05-19T08:24:29.594Z,22.72
2023-05-19T08:26:56.317Z,22.74
2023-05-19T08:29:23.080Z,22.73
2023-05-19T08:31:49.923Z,22.71
2023-05-19T08:34:16.782Z,22.65
2023-05-19T08:36:43.556Z,22.70
2023-05-19T08:39:10.336Z,22.60
2023-05-19T08:41:37.162Z,22.63
2023-05-19T08:44:04.764Z,22.64
2023-05-19T08:46:31.655Z,22.67
2023-05-19T08:49:14.048Z,22.58
2023-05-19T08:51:50.882Z,22.63
2023-05-19T08:54:17.718Z,22.51
2023-05-19T08:56:44.761Z,22.56
2023-05-19T09:01:45.603Z,22.64
2023-05-19T09:04:12.505Z,22.70
2023-05-19T09:06:39.421Z,22.75
2023-05-19T09:09:06.383Z,22.73
2023-05-19T09:11:33.968Z,22.73
2023-05-19T09:14:00.803Z,22.66
2023-05-19T09:16:29.947Z,22.62
2023-05-19T09:18:57.491Z,22.58
2023-05-19T09:21:28.242Z,22.54
2023-05-19T09:23:55.057Z,22.54
2023-05-19T09:26:21.861Z,22.45
2023-05-19T09:28:48.752Z,22.48
2023-05-19T09:31:15.538Z,22.39
2023-05-19T09:33:45.481Z,22.34
2023-05-19T09:36:13.161Z,22.43
2023-05-19T09:38:39.990Z,22.45
2023-05-19T09:41:07.372Z,22.39
2023-05-19T09:43:34.550Z,22.33
2023-05-19T09:46:05.046Z,22.46
2023-05-19T09:48:32.023Z,22.48
2023-05-19T09:51:03.302Z,22.47
2023-05-19T09:53:30.494Z,22.44
2023-05-19T09:55:57.524Z,22.44
2023-05-19T09:58:24.446Z,22.42
2023-05-19T10:00:51.328Z,22.46
2023-05-19T10:03:18.229Z,22.43
2023-05-19T10:05:45.158Z,22.52
2023-05-19T10:08:12.092Z,22.46
2023-05-19T10:10:38.907Z,22.42
2023-05-19T10:13:05.665Z,22.51
2023-05-19T10:15:34.460Z,22.63
2023-05-19T10:18:03.314Z,22.57
2023-05-19T10:22:56.846Z,22.57
2023-05-19T10:25:23.588Z,22.60
2023-05-19T10:27:52.494Z,22.79
2023-05-19T10:30:22.034Z,22.90
2023-05-19T10:32:48.939Z,22.99
2023-05-19T10:35:37.042Z,23.03
2023-05-19T10:38:15.765Z,23.10
2023-05-19T10:41:07.853Z,23.23
2023-05-19T10:43:46.589Z,23.26
2023-05-19T10:46:13.492Z,23.20
2023-05-19T10:48:41.540Z,23.28
2023-05-19T10:51:13.978Z,23.29
2023-05-19T10:53:44.035Z,23.19
2023-05-19T10:56:10.956Z,23.21
2023-05-19T10:58:49.003Z,23.26
2023-05-19T11:01:16.913Z,23.26
2023-05-19T11:03:47.200Z,23.25
2023-05-19T11:06:20.601Z,23.24
2023-05-19T11:08:47.404Z,23.25
2023-05-19T11:11:15.349Z,23.24
2023-05-19T11:13:46.954Z,23.24
2023-05-19T11:16:14.162Z,23.31
2023-05-19T11:18:41.009Z,23.38
2023-05-19T11:21:07.917Z,23.41
2023-05-19T11:23:37.957Z,23.37
2023-05-19T11:26:06.069Z,23.40
2023-05-19T11:28:32.866Z,23.45
2023-05-19T11:30:59.693Z,23.41
2023-05-19T11:33:26.459Z,23.42
2023-05-19T11:35:54.190Z,23.45
2023-05-19T11:38:21.221Z,23.49
2023-05-19T11:40:48.798Z,23.53
2023-05-19T11:43:15.848Z,23.56
2023-05-19T11:45:42.646Z,23.58
2023-05-19T11:48:12.872Z,23.62
2023-05-19T11:50:42.833Z,23.63
2023-05-19T11:53:11.968Z,23.62
2023-05-19T11:55:42.573Z,23.65
2023-05-19T11:58:09.463Z,23.66
2023-05-19T12:00:37.766Z,23.68
2023-05-19T12:03:04.688Z,23.67
2023-05-19T12:05:32.463Z,23.63
2023-05-19T12:08:01.313Z,23.69
2023-05-19T12:10:28.796Z,23.71
2023-05-19T12:12:55.862Z,23.69
2023-05-19T12:15:22.726Z,23.70
2023-05-19T12:18:07.685Z,23.79
2023-05-19T12:20:34.551Z,23.88
2023-05-19T12:23:02.068Z,23.85
2023-05-19T12:25:29.374Z,23.81
2023-05-19T12:27:59.915Z,23.86
2023-05-19T12:30:30.155Z,23.92
2023-05-19T12:32:57.260Z,23.98
2023-05-19T12:35:30.915Z,24.00
2023-05-19T12:37:57.830Z,23.97
2023-05-19T12:40:24.717Z,23.95
2023-05-19T12:42:51.509Z,24.02
2023-05-19T12:45:20.762Z,24.03
2023-05-19T12:47:48.583Z,24.02
2023-05-19T12:50:15.391Z,24.06
2023-05-19T12:52:43.995Z,24.11
2023-05-19T12:55:10.929Z,24.15
2023-05-19T12:57:43.065Z,24.16
2023-05-19T13:00:17.673Z,24.15
2023-05-19T13:03:03.406Z,24.18
2023-05-19T13:05:31.347Z,24.20
2023-05-19T13:08:02.198Z,24.27
2023-05-19T13:10:29.660Z,24.21
2023-05-19T13:12:56.837Z,24.23
2023-05-19T13:15:23.934Z,24.13
2023-05-19T13:17:51.338Z,24.09
2023-05-19T13:20:18.514Z,24.17
2023-05-19T13:22:45.318Z,24.21
2023-05-19T13:25:12.248Z,24.22
2023-05-19T13:27:38.991Z,24.24
2023-05-19T13:30:06.471Z,24.20
2023-05-19T13:32:33.336Z,24.18
2023-05-19T13:35:03.295Z,24.21
2023-05-19T13:37:30.104Z,24.30
2023-05-19T13:39:59.625Z,24.22
2023-05-19T13:42:26.357Z,24.26
2023-05-19T13:44:56.193Z,24.32
2023-05-19T13:47:26.191Z,24.37
2023-05-19T13:49:52.978Z,24.38
2023-05-19T13:52:20.548Z,24.42
2023-05-19T13:54:47.827Z,24.44
2023-05-19T13:57:15.279Z,24.51
2023-05-19T13:59:57.166Z,24.56
2023-05-19T14:02:27.542Z,24.61
2023-05-19T14:04:54.428Z,24.57
2023-05-19T14:07:21.166Z,24.62
2023-05-19T14:09:47.942Z,24.67
2023-05-19T14:12:14.739Z,24.56
2023-05-19T14:14:41.560Z,24.67
2023-05-19T14:17:08.264Z,24.56
2023-05-19T14:19:35.018Z,24.52
2023-05-19T14:22:01.792Z,24.56
2023-05-19T14:24:28.615Z,24.59
2023-05-19T14:26:55.313Z,24.61
2023-05-19T14:29:22.152Z,24.51
2023-05-19T14:31:49.003Z,24.49
2023-05-19T14:34:15.809Z,24.44
2023-05-19T14:36:42.526Z,24.37
2023-05-19T14:39:09.254Z,24.43
2023-05-19T14:41:36.060Z,24.46
2023-05-19T14:44:02.838Z,24.42
2023-05-19T14:46:29.615Z,24.43
2023-05-19T14:48:56.608Z,24.34
2023-05-19T14:51:23.368Z,24.32
2023-05-19T14:53:50.203Z,24.34
2023-05-19T14:56:17.080Z,24.37
2023-05-19T14:58:43.885Z,24.35
2023-05-19T15:01:10.740Z,24.33
2023-05-19T15:03:37.700Z,24.25
2023-05-19T15:06:08.788Z,24.21
2023-05-19T15:08:35.539Z,24.20
2023-05-19T15:11:02.329Z,24.17
2023-05-19T15:13:29.113Z,24.33
2023-05-19T15:16:08.395Z,24.23
2023-05-19T15:18:42.742Z,24.23
2023-05-19T15:21:09.611Z,24.08
2023-05-19T15:23:36.425Z,24.06
2023-05-19T15:26:03.309Z,24.07
2023-05-19T15:28:30.091Z,24.04
2023-05-19T15:30:56.853Z,24.05
2023-05-19T15:33:25.133Z,24.00
2023-05-19T15:35:52.264Z,24.01
2023-05-19T15:38:22.592Z,23.97
2023-05-19T15:40:49.373Z,23.92
2023-05-19T15:43:16.216Z,23.89
2023-05-19T15:45:43.073Z,23.88
2023-05-19T15:48:09.911Z,23.80
2023-05-19T15:50:38.294Z,23.79
2023-05-19T15:53:05.138Z,23.75
2023-05-19T15:55:32.500Z,23.74
2023-05-19T15:57:59.258Z,23.73
2023-05-19T16:00:26.079Z,23.73
2023-05-19T16:02:55.941Z,23.70
2023-05-19T16:05:22.861Z,23.70
2023-05-19T16:07:49.685Z,23.71
2023-05-19T16:10:16.492Z,23.72
2023-05-19T16:12:43.234Z,23.72
2023-05-19T16:15:10.309Z,23.70
2023-05-19T16:17:37.114Z,23.69
2023-05-19T16:20:04.123Z,23.74
2023-05-19T16:22:30.953Z,23.73
2023-05-19T16:24:57.756Z,23.70
2023-05-19T16:27:24.507Z,23.66
2023-05-19T16:29:51.245Z,23.67
2023-05-19T16:32:18.073Z,23.66
2023-05-19T16:34:44.920Z,23.64
2023-05-19T16:37:11.773Z,23.64
2023-05-19T16:39:38.508Z,23.67
2023-05-19T16:42:05.431Z,23.65
2023-05-19T16:44:32.277Z,23.73
2023-05-19T16:46:59.190Z,23.78
2023-05-19T16:49:25.993Z,23.68
2023-05-19T16:51:53.006Z,23.67
2023-05-19T16:54:20.060Z,23.67
2023-05-19T16:56:48.033Z,23.59
2023-05-19T16:59:14.847Z,23.53
2023-05-19T17:01:41.862Z,23.54
2023-05-19T17:04:09.318Z,23.50
2023-05-19T17:06:36.063Z,23.59
2023-05-19T17:09:02.823Z,23.52
2023-05-19T17:11:29.646Z,23.45
2023-05-19T17:13:58.340Z,23.50
2023-05-19T17:16:25.100Z,23.52
2023-05-19T17:18:51.903Z,23.50
2023-05-19T17:21:18.748Z,23.49
2023-05-19T17:23:45.545Z,23.49
2023-05-19T17:26:12.277Z,23.55
2023-05-19T17:28:39.827Z,23.45
2023-05-19T17:31:10.984Z,23.50
2023-05-19T17:33:37.934Z,23.42
2023-05-19T17:36:05.391Z,23.41
2023-05-19T17:38:32.138Z,23.32
2023-05-19T17:40:59.557Z,23.32
2023-05-19T17:43:26.672Z,23.25
2023-05-19T17:45:53.649Z,23.20
2023-05-19T17:48:20.612Z,23.19
2023-05-19T17:50:47.875Z,23.19
2023-05-19T17:53:17.801Z,23.16
2023-05-19T17:55:48.621Z,23.14
2023-05-19T17:58:15.724Z,23.15
2023-05-19T18:00:42.600Z,23.18
2023-05-19T18:03:09.748Z,23.20
2023-05-19T18:05:36.933Z,23.21
2023-05-19T18:08:06.326Z,23.22
2023-05-19T18:10:36.235Z,23.22
2023-05-19T18:13:04.376Z,23.16
2023-05-19T18:15:31.219Z,23.16
2023-05-19T18:17:58.024Z,23.19
2023-05-19T18:20:24.917Z,23.21
2023-05-19T18:22:51.738Z,23.21
2023-05-19T18:25:18.549Z,23.19
2023-05-19T18:27:45.393Z,23.14
2023-05-19T18:30:12.174Z,23.19
2023-05-19T18:32:39.010Z,23.15
2023-05-19T18:35:06.383Z,23.12
2023-05-19T18:37:33.170Z,23.19
2023-05-19T18:40:00.822Z,23.19
2023-05-19T18:42:27.580Z,23.19
2023-05-19T18:44:54.340Z,23.23
2023-05-19T18:47:21.175Z,23.19
2023-05-19T18:49:47.928Z,23.18
2023-05-19T18:52:14.796Z,23.20
2023-05-19T18:54:41.578Z,23.22
2023-05-19T18:57:08.920Z,23.18
2023-05-19T18:59:35.698Z,23.19
2023-05-19T19:02:02.508Z,23.23
2023-05-19T19:04:29.385Z,23.14
2023-05-19T19:06:56.305Z,23.13
2023-05-19T19:09:23.167Z,23.12
2023-05-19T19:11:49.996Z,23.14
2023-05-19T19:14:16.828Z,23.12
2023-05-19T19:16:43.702Z,23.08
2023-05-19T19:19:10.612Z,23.10
2023-05-19T19:21:37.416Z,23.10
2023-05-19T19:24:04.549Z,23.16
2023-05-19T19:26:31.290Z,23.12
2023-05-19T19:28:58.496Z,23.10
2023-05-19T19:31:25.280Z,23.10
2023-05-19T19:33:52.128Z,23.08
2023-05-19T19:36:19.076Z,23.07
2023-05-19T19:38:45.850Z,23.00
2023-05-19T19:41:12.629Z,23.08
2023-05-19T19:43:39.394Z,23.03
2023-05-19T19:46:06.199Z,23.01
2023-05-19T19:48:33.000Z,22.99
2023-05-19T19:50:59.741Z,23.02
2023-05-19T19:53:26.574Z,22.97
2023-05-19T19:55:59.750Z,22.97
2023-05-19T19:58:26.980Z,23.04
2023-05-19T20:00:57.819Z,22.96
2023-05-19T20:03:24.978Z,22.93
2023-05-19T20:05:52.028Z,23.00
2023-05-19T20:08:18.921Z,23.04
2023-05-19T20:10:48.645Z,23.07
2023-05-19T20:13:15.855Z,23.11
2023-05-19T20:15:43.176Z,23.13
2023-05-19T20:18:10.264Z,23.14
2023-05-19T20:20:37.809Z,23.12
2023-05-19T20:23:04.785Z,23.10
2023-05-19T20:25:31.652Z,23.11
2023-05-19T20:27:58.531Z,23.10
2023-05-19T20:30:25.328Z,23.13
2023-05-19T20:32:52.106Z,23.08
2023-05-19T20:35:19.018Z,23.09
2023-05-19T20:37:45.829Z,23.13
2023-05-19T20:40:12.780Z,23.08
2023-05-19T20:42:39.803Z,23.07
2023-05-19T20:45:07.625Z,23.13
2023-05-19T20:47:34.435Z,23.09
2023-05-19T20:50:01.247Z,23.10
2023-05-19T20:52:28.121Z,23.04
2023-05-19T20:54:55.048Z,23.09
2023-05-19T20:57:21.827Z,23.06
2023-05-19T20:59:48.602Z,23.07
2023-05-19T21:02:15.392Z,23.04
2023-05-19T21:04:42.261Z,22.99
2023-05-19T21:07:09.114Z,22.97
2023-05-19T21:09:35.991Z,23.00
2023-05-19T21:12:02.918Z,23.07
2023-05-19T21:14:29.873Z,23.08
2023-05-19T21:16:56.741Z,23.08
2023-05-19T21:19:23.602Z,22.95
2023-05-19T21:21:50.445Z,23.01
2023-05-19T21:24:17.249Z,23.02
2023-05-19T21:26:44.002Z,23.09
2023-05-19T21:29:10.852Z,23.01
2023-05-19T21:31:37.741Z,22.98
2023-05-19T21:34:04.847Z,23.05
2023-05-19T21:36:31.640Z,23.04
2023-05-19T21:38:58.423Z,23.02
2023-05-19T21:41:25.235Z,23.01
2023-05-19T21:43:52.076Z,23.03
2023-05-19T21:46:18.979Z,22.99
2023-05-19T21:48:45.928Z,23.00
2023-05-19T21:51:12.770Z,22.99
2023-05-19T21:53:39.591Z,22.93
2023-05-19T21:56:06.506Z,22.98
2023-05-19T21:58:33.328Z,23.00
2023-05-19T22:01:00.096Z,23.02
2023-05-19T22:03:27.037Z,23.01
2023-05-19T22:05:54.776Z,22.99
2023-05-19T22:08:21.711Z,23.07
2023-05-19T22:10:48.727Z,23.07
2023-05-19T22:13:15.514Z,22.96
2023-05-19T22:15:45.439Z,22.97
2023-05-19T22:18:12.332Z,22.99
2023-05-19T22:20:39.188Z,22.95
2023-05-19T22:23:06.002Z,23.00
2023-05-19T22:25:32.782Z,22.94
2023-05-19T22:27:59.555Z,22.94
2023-05-19T22:30:26.373Z,22.99
2023-05-19T22:32:53.254Z,23.05
2023-05-19T22:35:20.164Z,23.02
2023-05-19T22:37:46.928Z,22.98
2023-05-19T22:40:13.832Z,22.99
2023-05-19T22:42:40.604Z,22.95
2023-05-19T22:45:07.895Z,22.98
2023-05-19T22:47:34.726Z,22.98
2023-05-19T22:50:01.591Z,22.95
2023-05-19T22:52:28.492Z,22.92
2023-05-19T22:54:55.343Z,22.94
2023-05-19T22:57:22.162Z,22.97
2023-05-19T22:59:48.919Z,23.00
2023-05-19T23:02:15.819Z,22.97
2023-05-19T23:04:42.684Z,22.96
2023-05-19T23:07:09.464Z,22.99
2023-05-19T23:09:36.198Z,23.00
2023-05-19T23:12:03.038Z,22.96
2023-05-19T23:14:29.807Z,22.96
2023-05-19T23:16:56.645Z,22.98
2023-05-19T23:19:23.570Z,22.92
2023-05-19T23:21:50.456Z,22.99
2023-05-19T23:24:17.254Z,22.96
2023-05-19T23:26:44.104Z,22.98
2023-05-19T23:29:14.117Z,22.95
2023-05-19T23:31:41.300Z,22.95
2023-05-19T23:34:08.219Z,22.95
2023-05-19T23:36:34.976Z,22.95
2023-05-19T23:39:01.748Z,22.93
2023-05-19T23:41:28.488Z,22.97
2023-05-19T23:43:55.213Z,22.91
2023-05-19T23:46:22.334Z,22.87
2023-05-19T23:48:49.211Z,22.89
2023-05-19T23:51:16.072Z,22.89
2023-05-19T23:53:42.904Z,22.89
2023-05-19T23:56:10.337Z,22.92
2023-05-19T23:58:37.156Z,22.91
